Track Мамошин Александр

Time Latitude Longitude Accuracy (66% radius in meters) Altitude (meters) Speed (km/hour) Bearing (degrees) Battery (%) GPS flag
10:06:43 55.737907 37.299037 5 175 0 0.42029765248299 73 1 delete
10:06:31 55.737902 37.299037 10 172 0 243.36260986328 73 1 delete
10:06:18 55.737902 37.299037 5 173 0 243.36260986328 73 1 delete
10:06:06 55.737902 37.299037 10 172 0 243.36260986328 73 1 delete
10:05:53 55.737902 37.299037 5 174 0 243.36260986328 73 1 delete
10:05:41 55.737902 37.299037 5 173 0 243.36260986328 73 1 delete
10:05:28 55.737902 37.299037 5 173 0 243.36260986328 73 1 delete
10:05:16 55.737902 37.299037 5 174 0 243.36260986328 73 1 delete
10:05:03 55.737902 37.299037 10 174 0 243.36260986328 73 1 delete
10:04:52 55.737902 37.299037 5 175 0 243.36260986328 73 1 delete
10:04:40 55.737902 37.299037 5 176 0 243.36260986328 73 1 delete
10:04:27 55.737902 37.299037 5 179 0 243.36260986328 76 1 delete
10:04:15 55.737902 37.299037 5 178 0 243.36260986328 76 1 delete
10:03:56 55.737902 37.299037 5 174 0 243.36260986328 76 1 delete
10:03:40 55.737902 37.299037 10 172 0 243.36260986328 76 1 delete
10:03:28 55.737902 37.299037 5 177 0 243.36260986328 76 1 delete
10:03:16 55.737902 37.299037 5 172 0 243.36260986328 76 1 delete
10:03:04 55.737902 37.299037 5 168 0 243.36260986328 76 1 delete
10:02:52 55.737902 37.299037 5 176 0 243.36260986328 76 1 delete
10:02:40 55.737902 37.299037 5 173 0 243.36260986328 76 1 delete
10:02:28 55.737902 37.299037 5 179 0 243.36260986328 76 1 delete
10:02:16 55.737902 37.299037 5 179 0 243.36260986328 76 1 delete
10:02:04 55.737902 37.299037 5 177 0 243.36260986328 76 1 delete
10:01:52 55.737902 37.299037 5 175 0 243.36260986328 76 1 delete
10:01:40 55.737902 37.299037 5 174 0 243.36260986328 76 1 delete
10:01:28 55.737902 37.299037 5 175 0 243.36260986328 76 1 delete
10:01:15 55.737902 37.299037 5 177 0 243.36260986328 76 1 delete
10:01:03 55.737902 37.299037 5 178 0 243.36260986328 76 1 delete
10:00:50 55.737902 37.299037 15 178 0 243.36260986328 76 1 delete
10:00:37 55.737902 37.299037 5 179 0 243.36260986328 76 1 delete
10:00:25 55.737902 37.299037 5 175 0 243.36260986328 76 1 delete
10:00:13 55.737902 37.299037 5 172 0 243.36260986328 76 1 delete
10:00:01 55.737902 37.299037 10 172 0 243.36260986328 76 1 delete
09:59:49 55.737902 37.299037 5 171 0 243.36260986328 76 1 delete
09:59:37 55.737902 37.299037 15 180 0 243.36260986328 76 1 delete
09:59:25 55.737902 37.299037 5 177 0 243.36260986328 76 1 delete
09:59:13 55.737902 37.299037 5 174 0 243.36260986328 76 1 delete
09:59:01 55.737902 37.299037 10 174 0 243.36260986328 76 1 delete
09:58:49 55.737902 37.299037 5 178 0 243.36260986328 76 1 delete
09:58:37 55.737902 37.299037 5 173 0 243.36260986328 76 1 delete
09:58:25 55.737902 37.299037 5 177 0 243.36260986328 76 1 delete
09:58:13 55.737902 37.299037 5 185 0 243.36260986328 76 1 delete
09:58:01 55.737902 37.299037 10 179 0 243.36260986328 76 1 delete
09:57:49 55.737902 37.299037 5 178 0 243.36260986328 76 1 delete
09:57:37 55.737902 37.299037 5 178 0 243.36260986328 76 1 delete
09:57:30 55.737903 37.299039 5 176 0 243.36260986328 76 1 delete
09:57:25 55.737926 37.299053 5 175 0 243.36260986328 76 1 delete
09:57:13 55.737926 37.299053 5 178 0 243.36260986328 76 1 delete
09:57:01 55.737926 37.299053 5 175 0 243.36260986328 76 1 delete
09:56:49 55.737926 37.299053 5 170 0 243.36260986328 76 1 delete